Time;durP1;ratioP1;P1;durP2;ratioP2;P2;SDS_P1;SDS_P2;PMS_P1;PMS_P2;Temp;Humidity;BMP_temperature;BMP_pressure;BME280_temperature;BME280_humidity;BME280_pressure;Samples;Min_cycle;Max_cycle;Signal;HPM_P1;HPM_P2
2022/11/27 00:00:35;;;;;;;21.65;7.55;;;;;;;8.02;53.59;102775.34;7392660;19;20344;-60
2022/11/27 00:03:01;;;;;;;17.77;6.78;;;;;;;7.89;54.05;102767.75;7391294;19;20002;-60
2022/11/27 00:05:27;;;;;;;21.52;7.30;;;;;;;7.91;53.92;102762.84;7391303;19;20012;-59
2022/11/27 00:07:59;;;;;;;19.98;7.22;;;;;;;8.00;53.75;102761.22;7391914;19;20001;-59
2022/11/27 00:10:25;;;;;;;20.65;7.38;;;;;;;7.97;53.83;102761.75;7390997;19;20019;-59
2022/11/27 00:12:50;;;;;;;22.08;7.30;;;;;;;7.99;53.63;102759.56;7391342;19;20017;-59
2022/11/27 00:15:17;;;;;;;20.40;7.60;;;;;;;8.00;53.56;102758.50;7391094;19;19995;-59
2022/11/27 00:17:43;;;;;;;19.75;7.40;;;;;;;7.97;53.25;102756.31;7392347;19;19999;-60
2022/11/27 00:20:09;;;;;;;20.38;7.57;;;;;;;7.90;53.62;102759.31;7387954;19;20023;-60
2022/11/27 00:22:35;;;;;;;20.50;7.18;;;;;;;7.97;53.17;102769.91;7391159;19;20006;-60
2022/11/27 00:25:01;;;;;;;18.85;6.15;;;;;;;7.99;53.35;102759.56;7391060;19;20002;-60
2022/11/27 00:27:27;;;;;;;21.45;7.20;;;;;;;8.00;53.32;102757.66;7392322;19;20518;-60
2022/11/27 00:29:52;;;;;;;17.65;6.18;;;;;;;7.94;53.04;102760.38;7389497;19;20331;-59
2022/11/27 00:32:18;;;;;;;21.08;6.97;;;;;;;7.96;53.25;102751.97;7390137;19;20010;-59
2022/11/27 00:34:44;;;;;;;20.00;6.57;;;;;;;8.03;53.01;102757.13;7390445;19;20006;-59
2022/11/27 00:37:10;;;;;;;24.33;6.88;;;;;;;8.08;52.79;102755.22;7390520;19;19995;-59
2022/11/27 00:39:36;;;;;;;20.85;6.90;;;;;;;8.06;52.68;102759.28;7388437;19;20028;-60
2022/11/27 00:42:02;;;;;;;14.82;5.82;;;;;;;8.00;52.96;102753.06;7391077;19;20462;-59
2022/11/27 00:44:28;;;;;;;18.80;6.38;;;;;;;7.94;53.11;102746.00;7389355;19;20350;-59
2022/11/27 00:46:53;;;;;;;17.77;6.40;;;;;;;7.96;52.90;102749.25;7389860;19;20083;-59
2022/11/27 00:49:19;;;;;;;19.83;6.90;;;;;;;8.07;52.61;102745.41;7390054;19;20083;-59
2022/11/27 00:51:45;;;;;;;17.15;5.63;;;;;;;8.01;52.75;102745.69;7390106;19;20489;-60
2022/11/27 00:54:11;;;;;;;20.45;6.25;;;;;;;7.86;53.14;102746.56;7391545;19;20002;-59
2022/11/27 00:56:38;;;;;;;18.80;5.95;;;;;;;8.00;52.79;102739.47;7389805;19;20023;-59
2022/11/27 00:59:05;;;;;;;17.55;5.85;;;;;;;8.06;52.53;102746.50;7390028;19;20002;-59
2022/11/27 01:01:34;;;;;;;18.52;5.40;;;;;;;8.04;52.46;102745.97;7389981;19;20025;-59
2022/11/27 01:04:02;;;;;;;16.20;6.07;;;;;;;7.84;52.96;102738.66;7389047;19;19999;-59
2022/11/27 01:06:29;;;;;;;16.90;5.78;;;;;;;7.94;52.87;102730.47;7387739;19;20018;-59
2022/11/27 01:08:55;;;;;;;15.75;5.50;;;;;;;8.02;52.33;102737.28;7390269;19;20027;-59
2022/11/27 01:11:28;;;;;;;18.63;6.00;;;;;;;8.02;52.45;102741.91;7390622;19;20002;-59
2022/11/27 01:14:03;;;;;;;16.60;5.50;;;;;;;7.84;52.81;102740.56;7390380;19;19998;-58
2022/11/27 01:16:30;;;;;;;17.92;6.43;;;;;;;7.76;52.91;102733.78;7388130;19;20006;-59
2022/11/27 01:18:57;;;;;;;16.67;5.30;;;;;;;7.90;52.80;102731.34;7388807;19;20006;-60
2022/11/27 01:21:25;;;;;;;16.25;6.20;;;;;;;7.93;52.72;102730.75;7390127;19;19990;-59
2022/11/27 01:23:52;;;;;;;19.00;5.55;;;;;;;7.97;52.38;102720.97;7394840;19;20012;-59
2022/11/27 01:26:18;;;;;;;18.15;6.20;;;;;;;7.98;52.40;102717.16;7396604;19;20018;-59
2022/11/27 01:28:45;;;;;;;19.10;5.80;;;;;;;8.06;52.22;102715.78;7396109;19;19995;-60
2022/11/27 01:31:15;;;;;;;14.55;5.07;;;;;;;8.02;52.26;102710.06;7397513;19;20019;-60
2022/11/27 01:33:41;;;;;;;17.05;5.93;;;;;;;7.98;52.22;102711.72;7394468;19;20038;-60
2022/11/27 01:36:09;;;;;;;16.15;5.90;;;;;;;8.00;52.08;102716.88;7396701;19;20002;-59
2022/11/27 01:38:35;;;;;;;20.52;6.45;;;;;;;7.90;52.36;102715.00;7396296;19;19999;-60
2022/11/27 01:41:04;;;;;;;15.23;5.60;;;;;;;7.95;52.26;102715.00;7396996;19;20531;-59
2022/11/27 01:43:43;;;;;;;17.27;5.78;;;;;;;7.90;52.08;102717.75;7396074;19;20013;-60
2022/11/27 01:46:28;;;;;;;16.65;5.55;;;;;;;7.76;52.70;102707.44;7394820;19;20003;-59
2022/11/27 01:49:01;;;;;;;18.30;6.43;;;;;;;7.93;52.39;102712.56;7396307;19;20010;-59
2022/11/27 01:51:29;;;;;;;17.67;5.30;;;;;;;7.90;52.40;102712.28;7396883;19;20018;-60
2022/11/27 01:53:56;;;;;;;21.00;5.53;;;;;;;7.71;52.72;102699.28;7397537;19;20380;-59
2022/11/27 01:56:23;;;;;;;18.67;5.13;;;;;;;7.87;52.42;102704.69;7395749;19;19999;-59
2022/11/27 01:58:49;;;;;;;16.92;5.32;;;;;;;7.90;52.15;102707.66;7395528;19;20027;-59
2022/11/27 02:01:15;;;;;;;16.77;5.50;;;;;;;7.94;52.18;102697.03;7396429;19;20083;-59
2022/11/27 02:03:41;;;;;;;15.32;5.90;;;;;;;7.92;52.09;102694.59;7396241;19;20003;-59
2022/11/27 02:06:11;;;;;;;17.67;6.40;;;;;;;7.71;52.30;102699.28;7394754;19;19994;-59
2022/11/27 02:08:37;;;;;;;20.05;5.88;;;;;;;7.38;53.07;102689.84;7395204;19;20367;-59
2022/11/27 02:11:12;;;;;;;17.85;6.00;;;;;;;7.63;52.71;102691.69;7396418;19;20007;-60
2022/11/27 02:13:53;;;;;;;17.67;6.15;;;;;;;7.83;52.02;102690.00;7396722;19;19998;-60
2022/11/27 02:16:44;;;;;;;14.52;5.82;;;;;;;7.69;51.95;102678.91;7395478;19;20082;-60
2022/11/27 02:19:36;;;;;;;12.90;5.72;;;;;;;7.63;52.34;102674.56;7393042;19;20321;-60
2022/11/27 02:22:13;;;;;;;18.42;6.05;;;;;;;7.73;52.09;102669.09;7393281;19;20005;-58
2022/11/27 02:24:59;;;;;;;18.30;6.63;;;;;;;7.55;52.14;102668.59;7395587;19;20073;-60
2022/11/27 02:27:43;;;;;;;19.15;5.78;;;;;;;7.47;52.59;102666.44;7395592;19;20005;-60
2022/11/27 02:30:09;;;;;;;22.25;7.28;;;;;;;7.59;52.08;102660.72;7391240;19;20083;-59
2022/11/27 02:32:59;;;;;;;17.02;6.82;;;;;;;7.60;52.19;102665.06;7393270;19;20006;-60
2022/11/27 02:35:40;;;;;;;18.38;6.72;;;;;;;7.59;51.80;102666.16;7393530;19;19999;-60
2022/11/27 02:38:30;;;;;;;20.23;7.40;;;;;;;7.51;51.84;102669.41;7394145;19;20106;-58
2022/11/27 02:41:09;;;;;;;18.33;7.25;;;;;;;7.41;52.36;102662.94;7394406;19;20086;-58
2022/11/27 02:43:39;;;;;;;14.48;6.85;;;;;;;7.50;52.17;102665.91;7392037;19;20072;-58
2022/11/27 02:46:07;;;;;;;16.05;7.22;;;;;;;7.19;52.82;102662.41;7394689;19;19999;-59
2022/11/27 02:48:38;;;;;;;21.05;8.25;;;;;;;7.41;52.15;102657.50;7393972;19;20394;-59
2022/11/27 02:51:05;;;;;;;18.30;8.10;;;;;;;7.46;51.72;102662.09;7392938;19;19994;-59
2022/11/27 02:53:37;;;;;;;19.23;7.65;;;;;;;7.37;52.07;102656.41;7394921;19;20002;-59
2022/11/27 02:56:06;;;;;;;19.75;8.20;;;;;;;7.30;52.12;102658.59;7392333;19;20006;-58
2022/11/27 02:58:35;;;;;;;19.67;8.15;;;;;;;7.39;51.96;102656.94;7394005;19;20003;-58
2022/11/27 03:01:05;;;;;;;20.55;8.55;;;;;;;7.02;52.72;102671.63;7394537;19;20511;-58
2022/11/27 03:03:36;;;;;;;20.17;8.68;;;;;;;7.28;52.24;102674.34;7393062;19;19995;-59
2022/11/27 03:06:07;;;;;;;24.20;9.65;;;;;;;7.22;52.19;102675.44;7393642;19;19995;-58
2022/11/27 03:08:50;;;;;;;20.67;10.05;;;;;;;7.26;52.01;102676.50;7393394;19;20019;-58
2022/11/27 03:11:16;;;;;;;23.40;9.25;;;;;;;7.29;51.82;102667.81;7393274;19;19995;-58
2022/11/27 03:13:52;;;;;;;20.42;8.90;;;;;;;7.37;51.68;102667.25;7393737;19;19994;-58
2022/11/27 03:16:33;;;;;;;19.27;9.07;;;;;;;7.44;51.43;102666.97;7393093;19;20011;-58
2022/11/27 03:19:05;;;;;;;25.67;9.50;;;;;;;7.35;51.54;102664.00;7393322;19;20039;-59
2022/11/27 03:21:38;;;;;;;23.52;9.05;;;;;;;7.34;51.45;102667.00;7394115;19;19999;-60
2022/11/27 03:24:06;;;;;;;21.27;9.43;;;;;;;7.31;51.53;102668.38;7390735;19;20023;-59
2022/11/27 03:26:32;;;;;;;21.58;9.07;;;;;;;7.28;51.65;102668.91;7393128;19;19994;-58
2022/11/27 03:29:01;;;;;;;19.00;8.93;;;;;;;7.18;51.72;102664.31;7391129;19;19999;-58
2022/11/27 03:31:27;;;;;;;18.13;9.15;;;;;;;7.15;51.81;102662.13;7393767;19;20019;-57
2022/11/27 03:33:53;;;;;;;21.13;10.60;;;;;;;7.15;51.65;102659.41;7391200;19;20653;-57
2022/11/27 03:36:20;;;;;;;21.77;8.95;;;;;;;7.18;51.56;102674.38;7392730;19;19999;-57
2022/11/27 03:38:55;;;;;;;20.23;9.43;;;;;;;7.18;51.67;102664.31;7391803;19;20026;-59
2022/11/27 03:41:27;;;;;;;18.95;9.63;;;;;;;6.99;51.98;102664.03;7393901;19;20026;-58
2022/11/27 03:44:03;;;;;;;19.33;10.18;;;;;;;7.10;51.83;102655.91;7392094;19;19999;-58
2022/11/27 03:46:42;;;;;;;18.67;9.85;;;;;;;7.01;51.64;102650.16;7392629;19;20002;-57
2022/11/27 03:49:22;;;;;;;21.10;10.23;;;;;;;7.08;51.75;102644.47;7391691;19;20013;-58
2022/11/27 03:52:02;;;;;;;20.63;10.02;;;;;;;7.05;51.73;102641.22;7391427;19;20007;-57
2022/11/27 03:55:09;;;;;;;22.58;9.80;;;;;;;7.08;51.47;102644.47;7392813;19;20011;-57
2022/11/27 03:57:59;;;;;;;21.63;10.30;;;;;;;6.75;51.99;102630.34;7390844;19;20003;-57
2022/11/27 04:00:30;;;;;;;23.05;10.13;;;;;;;6.75;52.41;102638.47;7391123;19;20019;-58
2022/11/27 04:02:56;;;;;;;24.17;10.82;;;;;;;6.73;52.22;102630.59;7392286;19;19999;-57
2022/11/27 04:05:22;;;;;;;20.42;10.63;;;;;;;6.72;52.21;102633.59;7391675;19;20465;-57
2022/11/27 04:07:47;;;;;;;23.08;11.38;;;;;;;6.63;52.49;102636.03;7391659;19;20006;-58
2022/11/27 04:10:13;;;;;;;19.83;9.88;;;;;;;6.64;52.48;102633.03;7391002;19;20006;-58
2022/11/27 04:12:39;;;;;;;19.67;10.10;;;;;;;6.80;52.03;102638.47;7392119;19;20002;-59
2022/11/27 04:15:06;;;;;;;24.08;10.27;;;;;;;6.87;51.58;102637.09;7390285;19;20026;-58
2022/11/27 04:17:31;;;;;;;19.85;9.88;;;;;;;6.80;51.79;102636.56;7392919;19;19998;-59
2022/11/27 04:19:57;;;;;;;21.38;9.90;;;;;;;6.93;51.33;102632.53;7390656;19;20471;-59
2022/11/27 04:22:23;;;;;;;18.67;9.27;;;;;;;6.87;51.35;102631.69;7391790;19;19999;-59
2022/11/27 04:24:49;;;;;;;18.35;8.95;;;;;;;6.80;51.63;102620.28;7391733;19;20009;-59
2022/11/27 04:27:15;;;;;;;21.02;9.90;;;;;;;6.75;51.60;102612.16;7392649;19;20006;-59
2022/11/27 04:29:41;;;;;;;15.45;8.55;;;;;;;6.72;51.78;102607.25;7390932;19;20027;-59
2022/11/27 04:32:06;;;;;;;20.15;9.65;;;;;;;6.77;51.58;102609.16;7391111;19;19998;-59
2022/11/27 04:34:32;;;;;;;20.73;10.20;;;;;;;6.74;51.48;102607.78;7392131;19;20021;-58
2022/11/27 04:36:58;;;;;;;18.92;8.98;;;;;;;6.72;51.48;102601.03;7390506;19;19999;-59
2022/11/27 04:39:24;;;;;;;19.08;9.13;;;;;;;6.78;51.08;102600.75;7388435;19;20006;-57
2022/11/27 04:41:49;;;;;;;19.23;8.95;;;;;;;6.77;51.15;102599.09;7392021;19;20528;-58
2022/11/27 04:44:15;;;;;;;17.15;8.70;;;;;;;6.69;51.18;102594.22;7389640;19;20002;-58
2022/11/27 04:46:41;;;;;;;17.70;8.70;;;;;;;6.38;51.92;102585.25;7390522;19;19994;-58
2022/11/27 04:49:08;;;;;;;18.38;9.50;;;;;;;6.44;51.79;102586.88;7390664;19;19999;-58
2022/11/27 04:51:34;;;;;;;19.88;8.82;;;;;;;6.28;52.00;102586.84;7391317;19;20005;-58
2022/11/27 04:54:00;;;;;;;20.48;9.23;;;;;;;6.23;52.18;102586.84;7391452;19;19995;-58
2022/11/27 04:56:26;;;;;;;20.63;8.77;;;;;;;6.29;52.08;102588.50;7388587;19;20455;-58
2022/11/27 04:58:51;;;;;;;21.02;9.15;;;;;;;6.28;52.10;102586.84;7388737;19;19998;-57
2022/11/27 05:01:17;;;;;;;18.35;9.10;;;;;;;6.29;51.92;102583.06;7389426;19;20002;-58
2022/11/27 05:03:43;;;;;;;18.98;8.98;;;;;;;6.32;51.96;102581.69;7389462;19;20476;-58
2022/11/27 05:06:08;;;;;;;18.20;9.65;;;;;;;6.25;52.03;102575.72;7389958;19;20003;-58
2022/11/27 05:08:34;;;;;;;19.10;9.75;;;;;;;6.30;51.94;102578.44;7388331;19;20009;-57
2022/11/27 05:11:02;;;;;;;22.08;10.18;;;;;;;6.36;51.79;102571.97;7391297;19;19999;-58
2022/11/27 05:13:28;;;;;;;20.15;9.95;;;;;;;6.27;51.86;102565.44;7390602;19;20018;-58
2022/11/27 05:15:54;;;;;;;19.75;9.65;;;;;;;6.33;51.74;102556.22;7389870;19;20478;-58
2022/11/27 05:18:20;;;;;;;19.95;9.98;;;;;;;6.18;52.04;102559.72;7390033;19;20006;-58
2022/11/27 05:20:45;;;;;;;20.00;10.40;;;;;;;6.17;51.86;102541.81;7390198;19;20029;-58
2022/11/27 05:23:11;;;;;;;22.42;11.00;;;;;;;6.18;52.20;102545.34;7387862;19;19999;-59
2022/11/27 05:25:37;;;;;;;19.98;10.90;;;;;;;6.17;52.01;102541.00;7388360;19;20070;-59
2022/11/27 05:28:03;;;;;;;22.25;10.73;;;;;;;6.01;52.56;102537.44;7390011;19;20451;-59
2022/11/27 05:30:30;;;;;;;21.08;10.60;;;;;;;6.09;52.38;102545.03;7390290;19;20007;-59
2022/11/27 05:32:55;;;;;;;22.13;11.30;;;;;;;6.17;51.83;102541.81;7387330;19;20030;-59
2022/11/27 05:35:21;;;;;;;21.15;11.00;;;;;;;6.22;51.68;102544.53;7388677;19;20014;-59
2022/11/27 05:37:47;;;;;;;23.63;11.07;;;;;;;6.11;51.85;102543.72;7390552;19;20006;-57
2022/11/27 05:40:12;;;;;;;21.38;10.98;;;;;;;6.12;51.99;102548.03;7385920;19;20357;-58
2022/11/27 05:42:38;;;;;;;20.90;9.95;;;;;;;6.23;51.82;102539.94;7389744;19;20114;-59
2022/11/27 05:45:04;;;;;;;19.52;10.65;;;;;;;6.19;51.63;102539.63;7387097;19;20406;-59
2022/11/27 05:47:30;;;;;;;18.80;10.10;;;;;;;6.15;51.74;102538.56;7389991;19;20002;-58
2022/11/27 05:49:56;;;;;;;19.17;9.52;;;;;;;6.14;51.67;102526.06;7385851;19;20003;-58
2022/11/27 05:52:21;;;;;;;20.30;9.63;;;;;;;6.14;51.64;102526.06;7389624;19;20002;-58
2022/11/27 05:54:47;;;;;;;17.83;9.32;;;;;;;6.20;51.64;102519.59;7389466;19;20475;-58
2022/11/27 05:57:13;;;;;;;17.00;9.25;;;;;;;6.21;51.21;102523.94;7387688;19;19999;-58
2022/11/27 05:59:39;;;;;;;19.13;9.38;;;;;;;6.08;51.58;102522.56;7388140;19;20451;-58
2022/11/27 06:02:04;;;;;;;23.23;9.93;;;;;;;6.09;51.50;102517.94;7389417;19;20066;-57
2022/11/27 06:04:34;;;;;;;17.60;9.00;;;;;;;6.08;51.46;102510.91;7386973;19;20009;-58
2022/11/27 06:07:06;;;;;;;20.38;9.57;;;;;;;6.03;51.23;102505.47;7388508;19;20108;-58
2022/11/27 06:09:32;;;;;;;17.27;9.48;;;;;;;5.99;51.38;102509.78;7390192;19;20013;-59
2022/11/27 06:11:58;;;;;;;17.45;9.65;;;;;;;5.86;51.81;102516.53;7396339;19;19995;-58
2022/11/27 06:14:23;;;;;;;19.70;9.80;;;;;;;5.89;51.54;102527.66;7394422;19;20062;-59
2022/11/27 06:16:49;;;;;;;21.50;9.57;;;;;;;5.86;51.53;102522.78;7395625;19;19998;-59
2022/11/27 06:19:15;;;;;;;19.08;9.63;;;;;;;5.96;51.00;102507.59;7394170;19;19995;-58
2022/11/27 06:21:40;;;;;;;19.38;9.45;;;;;;;5.94;51.24;102511.41;7395736;19;20478;-58
2022/11/27 06:24:06;;;;;;;20.67;9.10;;;;;;;5.96;51.08;102504.91;7394193;19;19994;-57
2022/11/27 06:26:32;;;;;;;19.38;9.38;;;;;;;5.88;51.19;102507.06;7395006;19;20338;-58
2022/11/27 06:29:00;;;;;;;16.88;7.88;;;;;;;5.96;50.97;102504.91;7394370;19;20024;-59
2022/11/27 06:31:29;;;;;;;20.70;9.48;;;;;;;5.90;51.31;102498.66;7395159;19;20054;-58
2022/11/27 06:33:55;;;;;;;18.70;9.35;;;;;;;5.92;51.17;102504.63;7393427;19;20014;-58
2022/11/27 06:36:24;;;;;;;19.95;8.98;;;;;;;5.94;51.08;102499.75;7394437;19;20026;-58
2022/11/27 06:38:50;;;;;;;17.08;9.55;;;;;;;5.97;50.99;102482.16;7393223;19;20006;-59
2022/11/27 06:41:17;;;;;;;16.42;8.82;;;;;;;5.96;51.00;102488.63;7393729;19;20034;-58
2022/11/27 06:43:43;;;;;;;19.08;9.60;;;;;;;6.03;50.78;102475.66;7393787;19;20316;-57
2022/11/27 06:46:15;;;;;;;17.88;9.55;;;;;;;6.08;50.62;102470.25;7394056;19;19998;-58
2022/11/27 06:48:42;;;;;;;17.27;8.75;;;;;;;6.00;50.82;102468.06;7394202;19;20094;-57
2022/11/27 06:51:11;;;;;;;16.75;9.10;;;;;;;5.94;51.11;102465.34;7394930;19;20054;-59
2022/11/27 06:53:37;;;;;;;17.88;8.85;;;;;;;5.99;50.80;102459.09;7393082;19;20043;-59
2022/11/27 06:56:05;;;;;;;19.42;8.95;;;;;;;5.96;50.98;102472.38;7394322;19;20006;-59
2022/11/27 06:58:31;;;;;;;23.23;9.93;;;;;;;5.96;50.88;102485.91;7392361;19;20478;-58
2022/11/27 07:00:59;;;;;;;19.00;9.48;;;;;;;5.98;50.72;102478.38;7393045;19;20017;-59
2022/11/27 07:03:25;;;;;;;21.42;8.98;;;;;;;5.98;50.72;102472.94;7393370;19;20003;-59
2022/11/27 07:05:51;;;;;;;21.38;9.27;;;;;;;6.01;50.48;102480.50;7394594;19;20069;-58
2022/11/27 07:08:16;;;;;;;16.50;8.77;;;;;;;5.87;50.92;102494.56;7393968;19;20003;-59
2022/11/27 07:10:42;;;;;;;16.20;9.07;;;;;;;5.70;51.20;102489.38;7394288;19;20011;-58
2022/11/27 07:13:08;;;;;;;17.83;9.32;;;;;;;5.59;51.33;102495.03;7393944;19;20007;-58
2022/11/27 07:15:34;;;;;;;17.73;8.68;;;;;;;5.50;51.68;102482.00;7393458;19;20013;-59
2022/11/27 07:18:00;;;;;;;18.95;9.88;;;;;;;5.69;51.29;102481.53;7393898;19;20007;-59
2022/11/27 07:20:26;;;;;;;19.48;9.88;;;;;;;5.75;50.99;102480.47;7393855;19;20037;-59
2022/11/27 07:22:52;;;;;;;22.08;10.00;;;;;;;5.82;51.09;102477.50;7391451;19;20007;-59
2022/11/27 07:25:17;;;;;;;17.65;9.05;;;;;;;5.90;50.53;102476.97;7393475;19;20010;-59
2022/11/27 07:27:43;;;;;;;19.33;9.60;;;;;;;5.87;50.75;102474.81;7393677;19;19995;-59
2022/11/27 07:30:09;;;;;;;21.45;9.40;;;;;;;5.85;50.68;102485.09;7392531;19;20348;-59
2022/11/27 07:32:35;;;;;;;17.58;9.43;;;;;;;5.69;50.89;102476.09;7392740;19;20002;-59
2022/11/27 07:35:01;;;;;;;17.23;9.35;;;;;;;5.69;51.04;102474.22;7393228;19;20018;-59
2022/11/27 07:37:30;;;;;;;19.70;9.80;;;;;;;5.71;51.03;102473.97;7391853;19;19998;-58
2022/11/27 07:39:56;;;;;;;20.55;9.93;;;;;;;5.84;50.71;102470.75;7392905;19;20492;-58
2022/11/27 07:42:22;;;;;;;21.50;9.40;;;;;;;5.69;50.98;102484.25;7392466;19;20003;-58
2022/11/27 07:44:47;;;;;;;18.52;9.30;;;;;;;5.63;51.23;102486.13;7393371;19;19998;-59
2022/11/27 07:47:13;;;;;;;19.00;9.50;;;;;;;5.68;50.94;102488.84;7392964;19;19991;-60
2022/11/27 07:49:39;;;;;;;19.50;9.70;;;;;;;5.68;51.02;102485.34;7390155;19;20018;-58
2022/11/27 07:52:05;;;;;;;19.92;9.98;;;;;;;5.79;50.59;102476.13;7393265;19;20010;-58
2022/11/27 07:54:31;;;;;;;17.85;8.48;;;;;;;5.72;50.83;102470.97;7393999;19;20447;-59
2022/11/27 07:56:56;;;;;;;19.95;9.48;;;;;;;5.65;51.02;102469.59;7391928;19;20492;-59
2022/11/27 07:59:22;;;;;;;19.33;8.90;;;;;;;5.81;50.67;102476.69;7391633;19;19991;-58
2022/11/27 08:01:48;;;;;;;18.83;9.45;;;;;;;5.89;50.48;102468.03;7393041;19;19999;-58
2022/11/27 08:04:13;;;;;;;25.38;13.45;;;;;;;6.00;50.13;102462.63;7391105;19;20335;-58
2022/11/27 08:06:39;;;;;;;27.00;11.77;;;;;;;5.82;50.51;102462.06;7392117;19;20392;-57
2022/11/27 08:09:05;;;;;;;20.42;10.70;;;;;;;5.87;50.26;102445.78;7391029;19;19998;-58
2022/11/27 08:11:33;;;;;;;20.45;10.30;;;;;;;5.92;50.31;102448.50;7392095;19;20019;-59
2022/11/27 08:14:05;;;;;;;20.02;10.43;;;;;;;5.97;50.26;102450.41;7392935;19;19995;-59
2022/11/27 08:16:33;;;;;;;20.35;10.45;;;;;;;5.99;50.00;102448.25;7391283;19;20011;-58
2022/11/27 08:18:59;;;;;;;22.63;11.27;;;;;;;5.87;50.51;102448.50;7390575;19;20515;-59
2022/11/27 08:21:25;;;;;;;24.95;13.32;;;;;;;5.94;50.18;102438.25;7390277;19;20002;-58
2022/11/27 08:23:51;;;;;;;23.25;13.13;;;;;;;5.90;50.40;102444.47;7389188;19;19995;-59
2022/11/27 08:26:17;;;;;;;22.17;13.75;;;;;;;5.94;50.45;102432.81;7391466;19;19991;-58
2022/11/27 08:28:43;;;;;;;21.80;11.57;;;;;;;5.99;50.18;102436.59;7391041;19;20473;-58
2022/11/27 08:31:11;;;;;;;18.02;10.65;;;;;;;6.01;50.15;102429.00;7391511;19;20062;-58
2022/11/27 08:33:37;;;;;;;23.83;11.57;;;;;;;6.07;49.98;102426.03;7389360;19;20022;-57
2022/11/27 08:36:03;;;;;;;21.35;10.70;;;;;;;6.07;49.87;102427.94;7389515;19;20006;-57
2022/11/27 08:38:29;;;;;;;18.58;9.98;;;;;;;6.04;50.01;102417.63;7390909;19;20042;-58
2022/11/27 08:41:00;;;;;;;19.85;9.57;;;;;;;6.03;49.94;102408.69;7390548;19;19999;-57
2022/11/27 08:43:27;;;;;;;19.90;11.40;;;;;;;6.00;49.87;102413.84;7390600;19;20010;-56
2022/11/27 08:45:53;;;;;;;23.08;12.07;;;;;;;6.01;49.98;102424.41;7390411;19;20002;-58
2022/11/27 08:48:20;;;;;;;22.10;10.75;;;;;;;5.89;50.17;102416.56;7390405;19;20011;-58
2022/11/27 08:50:47;;;;;;;32.75;15.77;;;;;;;6.02;50.08;102419.81;7391470;19;19998;-59
2022/11/27 08:53:13;;;;;;;27.10;13.55;;;;;;;6.08;49.92;102414.13;7390470;19;20010;-58
2022/11/27 08:55:38;;;;;;;19.88;11.48;;;;;;;6.08;49.82;102405.19;7388555;19;20009;-58
2022/11/27 08:58:04;;;;;;;20.20;12.40;;;;;;;6.15;49.93;102407.63;7390656;19;20452;-59
2022/11/27 09:00:32;;;;;;;22.80;11.38;;;;;;;6.20;49.76;102400.28;7391012;19;20006;-58
2022/11/27 09:02:58;;;;;;;23.30;10.57;;;;;;;6.27;49.99;102392.66;7390463;19;20007;-58
2022/11/27 09:05:25;;;;;;;21.05;10.27;;;;;;;6.32;49.78;102378.31;7389320;19;20028;-58
2022/11/27 09:07:51;;;;;;;19.25;10.60;;;;;;;6.43;49.64;102374.50;7391167;19;20010;-59
2022/11/27 09:10:17;;;;;;;18.75;10.05;;;;;;;6.47;49.66;102372.03;7388864;19;20003;-58
2022/11/27 09:12:45;;;;;;;21.45;10.55;;;;;;;6.57;49.62;102366.59;7391055;19;20066;-59
2022/11/27 09:15:12;;;;;;;17.88;9.77;;;;;;;6.64;49.30;102367.13;7389720;19;20015;-59
2022/11/27 09:17:38;;;;;;;18.05;9.02;;;;;;;6.63;49.47;102370.91;7390186;19;20499;-58
2022/11/27 09:20:05;;;;;;;21.55;9.73;;;;;;;6.62;49.58;102361.13;7388040;19;20016;-60
2022/11/27 09:22:32;;;;;;;19.30;9.77;;;;;;;6.57;49.45;102366.59;7389975;19;20030;-58
2022/11/27 09:25:05;;;;;;;18.65;9.15;;;;;;;6.60;49.36;102363.31;7389250;19;20346;-58
2022/11/27 09:27:30;;;;;;;18.50;9.63;;;;;;;6.40;49.89;102360.66;7390825;19;20018;-58
2022/11/27 09:29:56;;;;;;;20.50;9.45;;;;;;;6.46;49.82;102351.41;7388111;19;20570;-59
2022/11/27 09:32:22;;;;;;;16.80;9.27;;;;;;;6.65;49.36;102363.31;7389335;19;20009;-58
2022/11/27 09:34:50;;;;;;;18.23;9.68;;;;;;;6.68;49.39;102362.75;7389410;19;20002;-58
2022/11/27 09:37:16;;;;;;;19.85;9.60;;;;;;;6.60;49.55;102376.88;7390055;19;20003;-57
2022/11/27 09:39:41;;;;;;;17.83;9.48;;;;;;;6.66;49.07;102367.66;7386428;19;20606;-58
2022/11/27 09:42:24;;;;;;;18.65;9.32;;;;;;;6.66;49.13;102375.78;7389930;19;20010;-58
2022/11/27 09:44:57;;;;;;;18.73;9.45;;;;;;;6.74;49.02;102384.44;7396050;19;20083;-58
2022/11/27 09:47:41;;;;;;;18.80;9.45;;;;;;;6.75;48.61;102377.94;7396832;19;20003;-59
2022/11/27 09:50:10;;;;;;;18.92;8.98;;;;;;;6.71;49.13;102379.56;7394109;19;20383;-58
2022/11/27 09:52:58;;;;;;;19.65;9.18;;;;;;;6.68;49.12;102373.63;7397472;19;20065;-59
2022/11/27 09:55:33;;;;;;;17.20;9.15;;;;;;;6.68;49.18;102370.91;7395102;19;20031;-57
2022/11/27 09:58:13;;;;;;;16.50;9.05;;;;;;;6.70;49.12;102369.81;7396673;19;20002;-58
2022/11/27 10:00:39;;;;;;;16.73;8.65;;;;;;;6.75;49.14;102367.09;7397449;19;19995;-57
2022/11/27 10:03:12;;;;;;;18.30;9.40;;;;;;;6.80;49.13;102364.34;7396024;19;20032;-58
2022/11/27 10:05:52;;;;;;;19.85;9.18;;;;;;;6.66;49.28;102370.38;7396132;19;20002;-58
2022/11/27 10:08:36;;;;;;;20.85;9.90;;;;;;;6.62;48.90;102366.56;7396222;19;20064;-57
2022/11/27 10:11:46;;;;;;;20.23;9.05;;;;;;;6.76;48.79;102360.56;7396335;19;20002;-58
2022/11/27 10:14:56;;;;;;;18.77;9.77;;;;;;;6.94;48.77;102359.97;7393334;19;20003;-58
2022/11/27 10:17:34;;;;;;;18.42;9.43;;;;;;;7.09;48.62;102366.44;7396320;19;20083;-58
2022/11/27 10:20:36;;;;;;;20.48;9.55;;;;;;;6.97;48.47;102359.41;7392192;19;20002;-57
2022/11/27 10:23:13;;;;;;;17.50;9.60;;;;;;;6.81;49.30;102363.25;7395117;19;20336;-58
2022/11/27 10:25:45;;;;;;;17.33;9.02;;;;;;;7.01;49.03;102359.66;7395662;19;20030;-58
2022/11/27 10:28:22;;;;;;;21.45;10.70;;;;;;;7.10;48.70;102359.91;7395140;19;20010;-57
2022/11/27 10:30:51;;;;;;;19.35;9.27;;;;;;;7.05;48.77;102358.84;7395558;19;20006;-59
2022/11/27 10:33:24;;;;;;;22.45;10.15;;;;;;;7.18;48.73;102359.34;7392338;19;20010;-59
2022/11/27 10:35:51;;;;;;;19.02;9.63;;;;;;;7.26;48.51;102364.16;7395084;19;20099;-59
2022/11/27 10:38:21;;;;;;;22.45;9.75;;;;;;;7.23;48.45;102362.03;7395045;19;20016;-58
2022/11/27 10:40:51;;;;;;;17.73;8.93;;;;;;;7.07;48.85;102355.03;7395558;19;19997;-58
2022/11/27 10:43:19;;;;;;;19.25;8.93;;;;;;;7.19;48.51;102355.50;7394783;19;19991;-59
2022/11/27 10:45:52;;;;;;;19.85;9.80;;;;;;;7.00;49.20;102347.19;7392703;19;20488;-58
2022/11/27 10:48:18;;;;;;;20.05;9.02;;;;;;;7.11;48.93;102350.66;7393384;19;19999;-57
2022/11/27 10:50:45;;;;;;;17.70;8.55;;;;;;;7.27;48.66;102341.34;7395042;19;19994;-58
2022/11/27 10:53:24;;;;;;;16.10;8.73;;;;;;;7.32;48.72;102338.59;7393120;19;20002;-58
2022/11/27 10:56:05;;;;;;;17.20;8.80;;;;;;;7.25;48.74;102338.09;7392663;19;20336;-58
2022/11/27 10:58:40;;;;;;;19.02;9.10;;;;;;;7.23;48.69;102340.28;7393997;19;20002;-59
2022/11/27 11:01:09;;;;;;;20.52;9.18;;;;;;;7.17;49.04;102330.53;7394823;19;20082;-58
2022/11/27 11:03:35;;;;;;;17.92;9.43;;;;;;;7.22;48.80;102334.03;7394024;19;19998;-58
2022/11/27 11:06:05;;;;;;;19.88;8.90;;;;;;;7.30;48.59;102329.13;7393799;19;20004;-58
2022/11/27 11:08:33;;;;;;;16.98;8.43;;;;;;;7.25;48.92;102334.59;7393803;19;20072;-58
2022/11/27 11:11:03;;;;;;;17.70;8.70;;;;;;;7.44;48.48;102313.00;7394441;19;20008;-58
2022/11/27 11:13:31;;;;;;;19.70;8.48;;;;;;;7.53;48.36;102311.28;7394284;19;19998;-58
2022/11/27 11:16:10;;;;;;;17.00;9.07;;;;;;;7.51;48.57;102318.91;7392982;19;20009;-58
2022/11/27 11:18:48;;;;;;;16.95;8.48;;;;;;;7.55;48.60;102318.06;7393138;19;19991;-58
2022/11/27 11:21:31;;;;;;;18.35;8.68;;;;;;;7.58;48.58;102297.69;7393912;19;20006;-59
2022/11/27 11:24:02;;;;;;;22.05;9.02;;;;;;;7.62;48.42;102298.72;7390844;19;20003;-59
2022/11/27 11:26:43;;;;;;;18.92;8.05;;;;;;;7.70;48.10;102295.38;7393001;19;19999;-59
2022/11/27 11:29:33;;;;;;;17.60;8.45;;;;;;;7.70;48.10;102291.88;7393640;19;20010;-59
2022/11/27 11:32:13;;;;;;;17.75;8.60;;;;;;;7.58;48.21;102287.59;7394370;19;20006;-58
2022/11/27 11:34:45;;;;;;;18.77;8.38;;;;;;;7.65;48.32;102290.00;7389359;19;20007;-59